| time (UTC) | temp C | wind direction | speed KPH | gust KPH | rain 1hr cm | rain 24hr cm | rain mn cm | humidity % | barometer mb |
| 20260509090513 | 21 | 239 | 3.2 | 20.9 | 0.00 | 0.13 | 0.00 | 86 | 1008.6 |
| 20260509090046 | 21 | 188 | 6.4 | 22.5 | 0.00 | 0.13 | 0.00 | 86 | 1008.1 |
| 20260509085513 | 21 | 0 | 8.0 | 30.6 | 0.00 | 0.23 | 0.00 | 86 | 1007.2 |
| 20260509085013 | 21 | 202 | 11.3 | 33.8 | 0.00 | 0.23 | 0.00 | 85 | 1006.9 |
| 20260509084530 | 21 | 133 | 11.3 | 33.8 | 0.00 | 0.23 | 0.00 | 85 | 1006.9 |
| 20260509084012 | 21 | 143 | 16.1 | 33.8 | 0.00 | 0.23 | 0.00 | 85 | 1006.8 |
| 20260509083512 | 21 | 181 | 12.9 | 29.0 | 0.00 | 0.23 | 0.00 | 85 | 1006.9 |
| 20260509083030 | 21 | 172 | 11.3 | 27.4 | 0.00 | 0.23 | 0.00 | 85 | 1007.3 |
| 20260509082510 | 21 | 164 | 14.5 | 27.4 | 0.00 | 0.23 | 0.00 | 85 | 1007.6 |
| 20260509082013 | 21 | 145 | 11.3 | 20.9 | 0.00 | 0.23 | 0.00 | 85 | 1007.8 |
| 20260509081546 | 21 | 210 | 9.7 | 20.9 | 0.00 | 0.23 | 0.00 | 85 | 1008.2 |
| 20260509081009 | 21 | 215 | 8.0 | 19.3 | 0.00 | 0.23 | 0.00 | 85 | 1008.4 |
| 20260509080510 | 21 | 205 | 9.7 | 19.3 | 0.00 | 0.23 | 0.00 | 85 | 1008.5 |
| 20260509080030 | 21 | 181 | 9.7 | 17.7 | 0.00 | 0.23 | 0.00 | 84 | 1008.9 |
| 20260509075512 | 21 | 211 | 8.0 | 17.7 | 0.00 | 0.28 | 0.00 | 84 | 1009.2 |
| 20260509075012 | 21 | 233 | 9.7 | 17.7 | 0.00 | 0.28 | 0.00 | 84 | 1009.5 |
| 20260509074528 | 21 | 195 | 9.7 | 17.7 | 0.00 | 0.28 | 0.00 | 84 | 1009.1 |
| 20260509074011 | 21 | 191 | 8.0 | 17.7 | 0.00 | 0.28 | 0.00 | 84 | 1009.5 |
| 20260509073509 | 21 | 198 | 8.0 | 17.7 | 0.00 | 0.28 | 0.00 | 84 | 1009.6 |
| 20260509073042 | 21 | 201 | 6.4 | 16.1 | 0.00 | 0.28 | 0.00 | 84 | 1009.9 |
| 20260509072510 | 21 | 207 | 4.8 | 16.1 | 0.00 | 0.28 | 0.00 | 84 | 1010.1 |
| 20260509072012 | 21 | 240 | 8.0 | 16.1 | 0.00 | 0.28 | 0.00 | 84 | 1010.2 |
| 20260509071536 | 21 | 247 | 6.4 | 14.5 | 0.00 | 0.28 | 0.00 | 84 | 1010.3 |
| 20260509071011 | 21 | 207 | 6.4 | 14.5 | 0.00 | 0.28 | 0.00 | 84 | 1010.5 |
| 20260509070513 | 21 | 220 | 6.4 | 14.5 | 0.00 | 0.28 | 0.00 | 84 | 1010.6 |
| 20260509070040 | 21 | 252 | 4.8 | 12.9 | 0.00 | 0.28 | 0.00 | 84 | 1010.7 |
| 20260509065517 | 21 | 257 | 3.2 | 12.9 | 0.00 | 0.28 | 0.00 | 84 | 1010.9 |
| 20260509065013 | 21 | 0 | 0.0 | 6.4 | 0.00 | 0.28 | 0.00 | 84 | 1010.9 |
| 20260509064531 | 21 | 0 | 0.0 | 8.0 | 0.00 | 0.28 | 0.00 | 83 | 1010.8 |
| 20260509064017 | 21 | 284 | 1.6 | 14.5 | 0.00 | 0.28 | 0.00 | 83 | 1010.7 |
| 20260509063509 | 21 | 305 | 4.8 | 14.5 | 0.00 | 0.28 | 0.00 | 83 | 1010.6 |
| 20260509063054 | 21 | 244 | 4.8 | 12.9 | 0.00 | 0.28 | 0.00 | 83 | 1010.4 |
| 20260509062513 | 21 | 241 | 6.4 | 12.9 | 0.00 | 0.28 | 0.00 | 83 | 1010.3 |
| 20260509062011 | 21 | 242 | 6.4 | 12.9 | 0.00 | 0.28 | 0.00 | 83 | 1010.1 |
| 20260509061545 | 21 | 230 | 4.8 | 12.9 | 0.00 | 0.28 | 0.00 | 83 | 1010.3 |
| 20260509061010 | 21 | 231 | 4.8 | 12.9 | 0.00 | 0.28 | 0.00 | 83 | 1010.3 |
| 20260509060511 | 21 | 219 | 4.8 | 11.3 | 0.00 | 0.28 | 0.00 | 83 | 1010.3 |
| 20260509060047 | 21 | 197 | 4.8 | 11.3 | 0.00 | 0.28 | 0.00 | 83 | 1010.3 |
| 20260509055511 | 21 | 206 | 4.8 | 9.7 | 0.00 | 0.28 | 0.00 | 82 | 1010.1 |
| 20260509055013 | 21 | 204 | 1.6 | 4.8 | 0.00 | 0.28 | 0.00 | 82 | 1010.6 |
| 20260509054530 | 21 | 0 | 0.0 | 4.8 | 0.00 | 0.28 | 0.00 | 82 | 1011.1 |
| 20260509054012 | 21 | 224 | 1.6 | 4.8 | 0.00 | 0.28 | 0.00 | 81 | 1011.0 |
| 20260509053510 | 21 | 0 | 0.0 | 4.8 | 0.00 | 0.28 | 0.00 | 81 | 1011.3 |
| 20260509053032 | 21 | 227 | 1.6 | 4.8 | 0.00 | 0.28 | 0.00 | 80 | 1011.2 |
| 20260509052511 | 21 | 211 | 0.0 | 3.2 | 0.00 | 0.28 | 0.00 | 80 | 1011.3 |
| 20260509052011 | 21 | 0 | 0.0 | 16.1 | 0.00 | 0.28 | 0.00 | 80 | 1011.3 |
| 20260509051530 | 21 | 333 | 3.2 | 16.1 | 0.00 | 0.28 | 0.00 | 80 | 1011.8 |
| 20260509051014 | 21 | 345 | 8.0 | 16.1 | 0.00 | 0.28 | 0.00 | 80 | 1011.9 |
| 20260509050510 | 21 | 342 | 9.7 | 16.1 | 0.00 | 0.28 | 0.00 | 80 | 1011.8 |
| 20260509050032 | 21 | 0 | 0.0 | 6.4 | 0.00 | 0.28 | 0.00 | 80 | 1011.0 |
| 20260509045511 | 22 | 244 | 1.6 | 14.5 | 0.00 | 0.28 | 0.28 | 80 | 1010.6 |
| 20260509045013 | 22 | 215 | 4.8 | 14.5 | 0.00 | 0.28 | 0.28 | 80 | 1010.2 |
| 20260509044530 | 22 | 227 | 4.8 | 14.5 | 0.00 | 0.28 | 0.28 | 80 | 1010.1 |
| 20260509044012 | 22 | 212 | 4.8 | 9.7 | 0.00 | 0.28 | 0.28 | 79 | 1010.0 |
| 20260509043509 | 21 | 188 | 3.2 | 11.3 | 0.00 | 0.28 | 0.28 | 79 | 1010.1 |
| 20260509043033 | 21 | 190 | 3.2 | 11.3 | 0.00 | 0.28 | 0.28 | 79 | 1010.2 |
| 20260509042514 | 21 | 0 | 0.0 | 12.9 | 0.00 | 0.28 | 0.28 | 79 | 1010.6 |
| 20260509042014 | 22 | 168 | 4.8 | 14.5 | 0.00 | 0.28 | 0.28 | 79 | 1010.2 |
| 20260509041528 | 22 | 136 | 3.2 | 17.7 | 0.00 | 0.28 | 0.28 | 79 | 1010.2 |
| 20260509041012 | 22 | 174 | 8.0 | 17.7 | 0.00 | 0.28 | 0.28 | 79 | 1010.2 |
| 20260509040511 | 22 | 170 | 8.0 | 17.7 | 0.00 | 0.28 | 0.28 | 79 | 1010.0 |
| 20260509040028 | 22 | 155 | 0.0 | 11.3 | 0.00 | 0.28 | 0.28 | 79 | 1010.3 |
| 20260509035514 | 22 | 0 | 3.2 | 16.1 | 0.00 | 0.28 | 0.28 | 78 | 1010.1 |
| 20260509035012 | 22 | 115 | 3.2 | 16.1 | 0.00 | 0.28 | 0.28 | 78 | 1009.9 |
| 20260509034530 | 22 | 182 | 8.0 | 16.1 | 0.00 | 0.28 | 0.28 | 78 | 1010.0 |
| 20260509034012 | 22 | 149 | 0.0 | 3.2 | 0.00 | 0.28 | 0.28 | 78 | 1010.7 |
| 20260509033514 | 22 | 0 | 0.0 | 0.0 | 0.00 | 0.28 | 0.28 | 78 | 1011.0 |
| 20260509033028 | 22 | 0 | 0.0 | 0.0 | 0.00 | 0.28 | 0.28 | 79 | 1011.0 |
| 20260509032516 | 22 | 0 | 0.0 | 4.8 | 0.00 | 0.28 | 0.28 | 79 | 1010.8 |
| 20260509032019 | 22 | 0 | 0.0 | 4.8 | 0.00 | 0.28 | 0.28 | 78 | 1010.6 |
| 20260509031534 | 22 | 101 | 0.0 | 4.8 | 0.00 | 0.28 | 0.28 | 78 | 1010.6 |
| 20260509031012 | 22 | 0 | 0.0 | 4.8 | 0.00 | 0.28 | 0.28 | 78 | 1010.4 |
| 20260509030511 | 22 | 0 | 0.0 | 4.8 | 0.00 | 0.28 | 0.28 | 78 | 1010.3 |
| 20260509030029 | 22 | 0 | 0.0 | 3.2 | 0.00 | 0.28 | 0.28 | 79 | 1010.3 |
| 20260509025510 | 22 | 0 | 0.0 | 3.2 | 0.00 | 0.28 | 0.28 | 78 | 1010.2 |
| 20260509025019 | 22 | 0 | 0.0 | 6.4 | 0.00 | 0.28 | 0.28 | 78 | 1010.0 |
| 20260509024530 | 22 | 0 | 0.0 | 16.1 | 0.00 | 0.28 | 0.28 | 77 | 1009.8 |
| 20260509024013 | 22 | 172 | 1.6 | 17.7 | 0.00 | 0.28 | 0.28 | 77 | 1009.6 |
| 20260509023511 | 22 | 171 | 6.4 | 17.7 | 0.00 | 0.28 | 0.28 | 77 | 1009.3 |
| 20260509023028 | 22 | 0 | 3.2 | 14.5 | 0.00 | 0.28 | 0.28 | 77 | 1009.2 |
| 20260509022511 | 22 | 178 | 6.4 | 20.9 | 0.00 | 0.28 | 0.28 | 77 | 1009.1 |
| 20260509022011 | 22 | 204 | 9.7 | 20.9 | 0.00 | 0.28 | 0.28 | 76 | 1009.0 |
| 20260509021528 | 22 | 170 | 9.7 | 19.3 | 0.00 | 0.28 | 0.28 | 76 | 1008.9 |
| 20260509021013 | 22 | 205 | 6.4 | 19.3 | 0.00 | 0.28 | 0.28 | 76 | 1008.9 |
| 20260509020512 | 22 | 150 | 6.4 | 20.9 | 0.00 | 0.28 | 0.28 | 76 | 1008.8 |
| 20260509020046 | 22 | 138 | 6.4 | 20.9 | 0.00 | 0.28 | 0.28 | 75 | 1009.0 |
| 20260509015513 | 22 | 188 | 9.7 | 20.9 | 0.00 | 0.28 | 0.28 | 75 | 1008.9 |
| 20260509015010 | 22 | 217 | 8.0 | 19.3 | 0.00 | 0.28 | 0.28 | 75 | 1008.9 |
| 20260509014542 | 22 | 196 | 9.7 | 19.3 | 0.00 | 0.28 | 0.28 | 75 | 1008.9 |
| 20260509014009 | 22 | 222 | 6.4 | 14.5 | 0.00 | 0.28 | 0.28 | 74 | 1008.9 |
| 20260509013511 | 22 | 199 | 6.4 | 12.9 | 0.00 | 0.28 | 0.28 | 74 | 1009.0 |
| 20260509013036 | 22 | 224 | 3.2 | 11.3 | 0.00 | 0.28 | 0.28 | 74 | 1009.0 |
| 20260509012512 | 22 | 174 | 3.2 | 11.3 | 0.00 | 0.28 | 0.28 | 74 | 1009.1 |
| 20260509012010 | 22 | 168 | 6.4 | 11.3 | 0.00 | 0.28 | 0.28 | 74 | 1009.1 |
| 20260509011530 | 22 | 186 | 3.2 | 11.3 | 0.00 | 0.28 | 0.28 | 74 | 1009.0 |
| 20260509011010 | 22 | 156 | 3.2 | 11.3 | 0.00 | 0.28 | 0.28 | 74 | 1009.0 |
| 20260509010516 | 22 | 214 | 4.8 | 12.9 | 0.00 | 0.28 | 0.28 | 73 | 1008.9 |
| 20260509010027 | 22 | 148 | 3.2 | 17.7 | 0.00 | 0.28 | 0.28 | 73 | 1008.8 |
| 20260509005513 | 23 | 161 | 4.8 | 17.7 | 0.00 | 0.28 | 0.28 | 72 | 1008.8 |
| 20260509005016 | 23 | 209 | 6.4 | 17.7 | 0.00 | 0.28 | 0.28 | 72 | 1008.6 |
| 20260509004528 | 23 | 156 | 4.8 | 17.7 | 0.00 | 0.28 | 0.28 | 72 | 1008.6 |
| 20260509004013 | 23 | 225 | 6.4 | 17.7 | 0.00 | 0.28 | 0.28 | 72 | 1008.5 |
| 20260509003515 | 23 | 225 | 8.0 | 19.3 | 0.00 | 0.28 | 0.28 | 71 | 1008.3 |
| 20260509003039 | 23 | 194 | 9.7 | 19.3 | 0.00 | 0.28 | 0.28 | 71 | 1008.2 |
| 20260509002509 | 23 | 207 | 9.7 | 22.5 | 0.00 | 0.28 | 0.28 | 71 | 1008.4 |
| 20260509002010 | 23 | 126 | 9.7 | 25.7 | 0.00 | 0.28 | 0.28 | 70 | 1008.2 |
| 20260509001528 | 23 | 177 | 11.3 | 25.7 | 0.00 | 0.28 | 0.28 | 70 | 1008.1 |
| 20260509001011 | 23 | 133 | 12.9 | 25.7 | 0.00 | 0.28 | 0.28 | 70 | 1008.1 |
| 20260509000511 | 23 | 166 | 9.7 | 25.7 | 0.00 | 0.28 | 0.28 | 70 | 1008.2 |
| 20260509000030 | 23 | 156 | 9.7 | 20.9 | 0.00 | 0.28 | 0.28 | 70 | 1008.3 |
| 20260508235512 | 23 | 193 | 8.0 | 17.7 | 0.00 | 0.28 | 0.28 | 69 | 1008.6 |
| 20260508235011 | 23 | 191 | 6.4 | 17.7 | 0.00 | 0.28 | 0.28 | 69 | 1008.7 |
| 20260508234528 | 23 | 230 | 4.8 | 17.7 | 0.00 | 0.28 | 0.28 | 69 | 1008.6 |
| 20260508234012 | 23 | 171 | 8.0 | 17.7 | 0.00 | 0.28 | 0.28 | 68 | 1008.7 |
| 20260508233515 | 24 | 179 | 9.7 | 17.7 | 0.00 | 0.28 | 0.28 | 68 | 1008.8 |
| 20260508233028 | 24 | 199 | 6.4 | 20.9 | 0.00 | 0.28 | 0.28 | 67 | 1008.6 |
| 20260508232513 | 24 | 228 | 6.4 | 20.9 | 0.00 | 0.28 | 0.28 | 67 | 1008.6 |
| 20260508232010 | 24 | 164 | 8.0 | 19.3 | 0.00 | 0.28 | 0.28 | 67 | 1008.8 |
| 20260508231530 | 24 | 147 | 8.0 | 20.9 | 0.00 | 0.28 | 0.28 | 67 | 1008.7 |
| 20260508231010 | 24 | 196 | 9.7 | 20.9 | 0.00 | 0.28 | 0.28 | 66 | 1008.8 |
| 20260508230510 | 24 | 182 | 8.0 | 14.5 | 0.00 | 0.28 | 0.28 | 66 | 1008.9 |
| 20260508230030 | 24 | 206 | 6.4 | 12.9 | 0.00 | 0.28 | 0.28 | 66 | 1009.1 |
| 20260508225512 | 24 | 159 | 8.0 | 14.5 | 0.00 | 0.28 | 0.28 | 67 | 1009.1 |
| 20260508225012 | 24 | 195 | 6.4 | 16.1 | 0.00 | 0.28 | 0.28 | 67 | 1009.0 |
| 20260508224533 | 24 | 210 | 8.0 | 16.1 | 0.00 | 0.28 | 0.28 | 67 | 1009.0 |
| 20260508224011 | 24 | 154 | 6.4 | 16.1 | 0.00 | 0.28 | 0.28 | 67 | 1009.2 |
| 20260508223512 | 24 | 242 | 6.4 | 14.5 | 0.00 | 0.28 | 0.28 | 66 | 1009.1 |
| 20260508223036 | 24 | 183 | 6.4 | 16.1 | 0.00 | 0.28 | 0.28 | 66 | 1009.2 |
| 20260508222514 | 24 | 177 | 6.4 | 20.9 | 0.00 | 0.28 | 0.28 | 66 | 1009.1 |
| 20260508222012 | 24 | 201 | 9.7 | 20.9 | 0.00 | 0.28 | 0.28 | 66 | 1009.2 |
| 20260508221528 | 25 | 160 | 9.7 | 20.9 | 0.00 | 0.28 | 0.28 | 65 | 1009.1 |
| 20260508221012 | 25 | 236 | 8.0 | 22.5 | 0.00 | 0.28 | 0.28 | 64 | 1009.0 |
| 20260508220511 | 25 | 143 | 11.3 | 22.5 | 0.00 | 0.28 | 0.28 | 63 | 1009.0 |
| 20260508220027 | 25 | 140 | 9.7 | 20.9 | 0.00 | 0.28 | 0.28 | 64 | 1009.0 |
| 20260508215512 | 25 | 165 | 9.7 | 19.3 | 0.00 | 0.28 | 0.28 | 64 | 1009.0 |
| 20260508215011 | 25 | 208 | 8.0 | 17.7 | 0.00 | 0.28 | 0.28 | 63 | 1009.0 |
| 20260508214528 | 25 | 182 | 8.0 | 24.1 | 0.00 | 0.28 | 0.28 | 63 | 1009.2 |
| 20260508214012 | 25 | 200 | 9.7 | 24.1 | 0.00 | 0.28 | 0.28 | 63 | 1009.0 |
| 20260508213511 | 25 | 182 | 8.0 | 20.9 | 0.00 | 0.28 | 0.28 | 63 | 1009.1 |
| 20260508213028 | 25 | 203 | 9.7 | 20.9 | 0.00 | 0.28 | 0.28 | 63 | 1009.3 |
| 20260508212512 | 25 | 195 | 9.7 | 17.7 | 0.00 | 0.28 | 0.28 | 62 | 1009.2 |
| 20260508212011 | 25 | 207 | 4.8 | 17.7 | 0.00 | 0.28 | 0.28 | 62 | 1009.1 |
| 20260508211528 | 25 | 157 | 1.6 | 22.5 | 0.00 | 0.28 | 0.28 | 65 | 1009.2 |
| 20260508211010 | 25 | 202 | 6.4 | 22.5 | 0.00 | 0.28 | 0.28 | 64 | 1009.2 |
| 20260508210510 | 24 | 191 | 4.8 | 19.3 | 0.00 | 0.28 | 0.28 | 65 | 1009.2 |
| 20260508210030 | 24 | 172 | 11.3 | 19.3 | 0.00 | 0.28 | 0.28 | 65 | 1009.5 |
| 20260508205512 | 23 | 207 | 9.7 | 19.3 | 0.00 | 0.28 | 0.28 | 65 | 1009.8 |
| 20260508205019 | 23 | 153 | 8.0 | 19.3 | 0.00 | 0.28 | 0.28 | 66 | 1010.0 |
| 20260508204530 | 23 | 232 | 8.0 | 19.3 | 0.00 | 0.28 | 0.28 | 68 | 1010.1 |
| 20260508204012 | 22 | 210 | 8.0 | 19.3 | 0.00 | 0.28 | 0.28 | 67 | 1010.4 |
| 20260508203513 | 22 | 190 | 8.0 | 17.7 | 0.00 | 0.28 | 0.28 | 67 | 1010.8 |
| 20260508203029 | 23 | 231 | 11.3 | 20.9 | 0.00 | 0.28 | 0.28 | 66 | 1011.0 |
| 20260508202512 | 23 | 230 | 9.7 | 20.9 | 0.00 | 0.28 | 0.28 | 66 | 1011.0 |
| 20260508202012 | 23 | 272 | 8.0 | 19.3 | 0.00 | 0.28 | 0.28 | 66 | 1011.1 |
| 20260508201533 | 23 | 238 | 8.0 | 19.3 | 0.00 | 0.28 | 0.28 | 65 | 1010.9 |
| 20260508201012 | 23 | 207 | 4.8 | 16.1 | 0.00 | 0.28 | 0.28 | 65 | 1010.9 |
| 20260508200511 | 23 | 204 | 4.8 | 12.9 | 0.00 | 0.28 | 0.28 | 65 | 1011.0 |
| 20260508200033 | 23 | 189 | 4.8 | 14.5 | 0.00 | 0.28 | 0.28 | 65 | 1011.1 |
| 20260508195513 | 23 | 226 | 6.4 | 14.5 | 0.00 | 0.28 | 0.28 | 65 | 1011.0 |
| 20260508195010 | 23 | 217 | 6.4 | 16.1 | 0.00 | 0.28 | 0.28 | 65 | 1010.9 |
| 20260508194531 | 23 | 238 | 6.4 | 16.1 | 0.00 | 0.28 | 0.28 | 65 | 1010.9 |
| 20260508194013 | 23 | 244 | 8.0 | 17.7 | 0.00 | 0.28 | 0.28 | 65 | 1011.0 |
| 20260508193510 | 23 | 168 | 9.7 | 17.7 | 0.00 | 0.28 | 0.28 | 64 | 1011.1 |
| 20260508193027 | 24 | 242 | 6.4 | 17.7 | 0.00 | 0.28 | 0.28 | 65 | 1011.1 |
| 20260508192509 | 24 | 163 | 8.0 | 17.7 | 0.00 | 0.28 | 0.28 | 65 | 1011.1 |
| 20260508192017 | 24 | 196 | 9.7 | 17.7 | 0.00 | 0.28 | 0.28 | 64 | 1011.2 |
| 20260508191535 | 25 | 240 | 6.4 | 16.1 | 0.00 | 0.28 | 0.28 | 63 | 1011.1 |
| 20260508191012 | 25 | 229 | 6.4 | 16.1 | 0.00 | 0.28 | 0.28 | 62 | 1011.1 |
| 20260508190512 | 25 | 235 | 8.0 | 17.7 | 0.00 | 0.28 | 0.28 | 61 | 1011.1 |
| 20260508190035 | 25 | 149 | 9.7 | 17.7 | 0.00 | 0.28 | 0.28 | 61 | 1011.2 |
| 20260508185513 | 26 | 220 | 4.8 | 16.1 | 0.00 | 0.28 | 0.28 | 61 | 1011.2 |
| 20260508185010 | 26 | 248 | 6.4 | 14.5 | 0.00 | 0.28 | 0.28 | 60 | 1011.1 |
| 20260508184530 | 26 | 211 | 4.8 | 19.3 | 0.00 | 0.28 | 0.28 | 61 | 1011.2 |
| 20260508184010 | 25 | 316 | 8.0 | 19.3 | 0.00 | 0.28 | 0.28 | 61 | 1011.3 |
| 20260508183512 | 25 | 216 | 1.6 | 19.3 | 0.00 | 0.28 | 0.28 | 61 | 1011.3 |
| 20260508183034 | 25 | 0 | 6.4 | 19.3 | 0.00 | 0.28 | 0.28 | 60 | 1011.5 |
| 20260508182510 | 25 | 145 | 4.8 | 14.5 | 0.00 | 0.28 | 0.28 | 61 | 1011.4 |
| 20260508182009 | 25 | 0 | 3.2 | 14.5 | 0.00 | 0.28 | 0.28 | 62 | 1011.6 |
| 20260508181535 | 24 | 184 | 4.8 | 16.1 | 0.00 | 0.28 | 0.28 | 62 | 1011.8 |
| 20260508181009 | 24 | 273 | 6.4 | 22.5 | 0.00 | 0.28 | 0.28 | 62 | 1012.0 |
| 20260508180511 | 24 | 244 | 9.7 | 22.5 | 0.00 | 0.28 | 0.28 | 63 | 1012.1 |
| 20260508180028 | 24 | 212 | 6.4 | 22.5 | 0.00 | 0.28 | 0.28 | 62 | 1012.0 |
| 20260508175510 | 25 | 212 | 4.8 | 16.1 | 0.00 | 0.28 | 0.28 | 59 | 1012.2 |
| 20260508175016 | 24 | 213 | 4.8 | 16.1 | 0.00 | 0.28 | 0.28 | 60 | 1012.2 |
| 20260508174533 | 25 | 209 | 1.6 | 17.7 | 0.00 | 0.28 | 0.28 | 62 | 1012.2 |
| 20260508174010 | 24 | 213 | 6.4 | 17.7 | 0.00 | 0.28 | 0.28 | 61 | 1012.2 |
| 20260508173510 | 24 | 216 | 8.0 | 16.1 | 0.00 | 0.28 | 0.28 | 61 | 1012.2 |
| 20260508173027 | 23 | 122 | 4.8 | 16.1 | 0.00 | 0.28 | 0.28 | 62 | 1012.3 |
| 20260508172510 | 23 | 209 | 8.0 | 16.1 | 0.00 | 0.28 | 0.28 | 62 | 1012.3 |
| 20260508172010 | 23 | 178 | 3.2 | 16.1 | 0.00 | 0.28 | 0.28 | 63 | 1012.3 |
| 20260508171530 | 23 | 147 | 8.0 | 14.5 | 0.00 | 0.28 | 0.28 | 64 | 1012.7 |
| 20260508171012 | 23 | 193 | 8.0 | 14.5 | 0.00 | 0.28 | 0.28 | 63 | 1012.9 |
| 20260508170509 | 22 | 184 | 4.8 | 12.9 | 0.00 | 0.28 | 0.28 | 64 | 1013.0 |
| 20260508170030 | 22 | 203 | 8.0 | 12.9 | 0.00 | 0.28 | 0.28 | 62 | 1013.1 |
| 20260508165511 | 22 | 151 | 3.2 | 14.5 | 0.00 | 0.28 | 0.28 | 64 | 1013.3 |
| 20260508165013 | 22 | 201 | 6.4 | 14.5 | 0.00 | 0.28 | 0.28 | 63 | 1013.4 |
| 20260508164528 | 22 | 210 | 8.0 | 16.1 | 0.00 | 0.28 | 0.28 | 63 | 1013.4 |
| 20260508164010 | 22 | 232 | 8.0 | 17.7 | 0.00 | 0.28 | 0.28 | 64 | 1013.8 |
| 20260508163511 | 22 | 182 | 8.0 | 17.7 | 0.00 | 0.28 | 0.28 | 63 | 1013.8 |
| 20260508163029 | 21 | 190 | 4.8 | 14.5 | 0.00 | 0.28 | 0.28 | 65 | 1013.9 |
| 20260508162511 | 21 | 196 | 6.4 | 16.1 | 0.00 | 0.28 | 0.28 | 64 | 1014.0 |
| 20260508162011 | 22 | 228 | 8.0 | 17.7 | 0.00 | 0.28 | 0.28 | 63 | 1014.0 |
| 20260508161529 | 21 | 226 | 4.8 | 17.7 | 0.00 | 0.28 | 0.28 | 65 | 1014.1 |
| 20260508161012 | 21 | 169 | 4.8 | 16.1 | 0.00 | 0.28 | 0.28 | 65 | 1014.1 |
| 20260508160512 | 21 | 182 | 4.8 | 16.1 | 0.00 | 0.28 | 0.28 | 67 | 1014.2 |
| 20260508160033 | 20 | 190 | 6.4 | 16.1 | 0.00 | 0.28 | 0.28 | 67 | 1014.2 |
| 20260508155510 | 20 | 178 | 6.4 | 16.1 | 0.00 | 0.28 | 0.28 | 67 | 1014.2 |
| 20260508155011 | 20 | 0 | 3.2 | 11.3 | 0.00 | 0.28 | 0.28 | 68 | 1014.3 |
| 20260508154528 | 20 | 228 | 4.8 | 19.3 | 0.00 | 0.28 | 0.28 | 67 | 1014.2 |
| 20260508154012 | 20 | 134 | 6.4 | 19.3 | 0.00 | 0.28 | 0.28 | 67 | 1014.4 |
| 20260508153513 | 20 | 190 | 8.0 | 16.1 | 0.00 | 0.28 | 0.28 | 67 | 1014.5 |
| 20260508153028 | 20 | 210 | 4.8 | 14.5 | 0.00 | 0.28 | 0.28 | 67 | 1014.4 |
| 20260508152514 | 20 | 210 | 6.4 | 12.9 | 0.00 | 0.28 | 0.28 | 67 | 1014.6 |
| 20260508152010 | 20 | 168 | 4.8 | 12.9 | 0.00 | 0.28 | 0.28 | 68 | 1014.6 |
| 20260508151531 | 20 | 167 | 4.8 | 14.5 | 0.00 | 0.28 | 0.28 | 68 | 1014.5 |
| 20260508151011 | 20 | 153 | 4.8 | 14.5 | 0.00 | 0.28 | 0.28 | 68 | 1014.5 |
| 20260508150511 | 20 | 179 | 6.4 | 14.5 | 0.00 | 0.28 | 0.28 | 69 | 1014.5 |
| 20260508150034 | 20 | 157 | 6.4 | 14.5 | 0.00 | 0.28 | 0.28 | 69 | 1014.5 |
| 20260508145511 | 19 | 187 | 3.2 | 9.7 | 0.00 | 0.28 | 0.28 | 70 | 1014.5 |
| 20260508145012 | 18 | 186 | 4.8 | 12.9 | 0.00 | 0.28 | 0.28 | 71 | 1014.5 |
| 20260508144527 | 18 | 221 | 3.2 | 12.9 | 0.00 | 0.28 | 0.28 | 73 | 1014.6 |
| 20260508144012 | 18 | 0 | 1.6 | 11.3 | 0.00 | 0.28 | 0.28 | 74 | 1014.7 |
| 20260508143514 | 18 | 0 | 0.0 | 11.3 | 0.00 | 0.28 | 0.28 | 75 | 1014.5 |
| 20260508143030 | 18 | 152 | 1.6 | 9.7 | 0.00 | 0.28 | 0.28 | 75 | 1014.6 |
| 20260508142510 | 18 | 136 | 3.2 | 16.1 | 0.00 | 0.28 | 0.28 | 73 | 1014.8 |
| 20260508142011 | 18 | 157 | 6.4 | 19.3 | 0.00 | 0.28 | 0.28 | 73 | 1014.7 |
| 20260508141554 | 18 | 236 | 8.0 | 19.3 | 0.00 | 0.28 | 0.28 | 73 | 1014.7 |
| 20260508141010 | 18 | 147 | 8.0 | 14.5 | 0.00 | 0.28 | 0.28 | 75 | 1014.6 |
| 20260508140511 | 18 | 232 | 4.8 | 14.5 | 0.00 | 0.28 | 0.28 | 78 | 1014.9 |
| 20260508140029 | 17 | 162 | 1.6 | 9.7 | 0.00 | 0.28 | 0.28 | 81 | 1014.8 |
| 20260508135509 | 17 | 141 | 3.2 | 11.3 | 0.00 | 0.28 | 0.28 | 82 | 1014.9 |
| 20260508135008 | 17 | 160 | 4.8 | 11.3 | 0.00 | 0.28 | 0.28 | 83 | 1014.9 |
| 20260508134537 | 17 | 146 | 1.6 | 8.0 | 0.00 | 0.28 | 0.28 | 84 | 1014.7 |
| 20260508134011 | 17 | 126 | 3.2 | 9.7 | 0.00 | 0.28 | 0.28 | 86 | 1014.5 |
| 20260508133512 | 16 | 0 | 3.2 | 9.7 | 0.00 | 0.28 | 0.28 | 87 | 1014.6 |
| 20260508133030 | 16 | 164 | 1.6 | 11.3 | 0.00 | 0.28 | 0.28 | 88 | 1014.8 |
| 20260508132513 | 16 | 0 | 1.6 | 11.3 | 0.03 | 0.28 | 0.28 | 88 | 1014.7 |
| 20260508132010 | 16 | 140 | 1.6 | 11.3 | 0.05 | 0.28 | 0.28 | 89 | 1014.7 |
| 20260508131527 | 16 | 0 | 0.0 | 3.2 | 0.08 | 0.28 | 0.28 | 89 | 1014.8 |
| 20260508131010 | 16 | 0 | 0.0 | 4.8 | 0.10 | 0.28 | 0.28 | 89 | 1014.8 |
| 20260508130513 | 15 | 0 | 0.0 | 4.8 | 0.10 | 0.28 | 0.28 | 88 | 1014.9 |
| 20260508130029 | 15 | 0 | 0.0 | 4.8 | 0.10 | 0.28 | 0.28 | 89 | 1014.9 |
| 20260508125512 | 15 | 0 | 0.0 | 3.2 | 0.10 | 0.28 | 0.28 | 89 | 1014.6 |
| 20260508125014 | 15 | 0 | 0.0 | 3.2 | 0.10 | 0.28 | 0.28 | 88 | 1014.8 |
| 20260508124533 | 15 | 0 | 0.0 | 4.8 | 0.10 | 0.28 | 0.28 | 88 | 1015.1 |
| 20260508124013 | 15 | 0 | 0.0 | 6.4 | 0.10 | 0.28 | 0.28 | 88 | 1015.1 |
| 20260508123515 | 15 | 0 | 1.6 | 6.4 | 0.10 | 0.28 | 0.28 | 87 | 1015.0 |
| 20260508123043 | 15 | 113 | 0.0 | 4.8 | 0.10 | 0.28 | 0.28 | 88 | 1014.7 |
| 20260508122512 | 15 | 0 | 0.0 | 4.8 | 0.08 | 0.25 | 0.25 | 86 | 1015.3 |
| 20260508122013 | 16 | 0 | 1.6 | 11.3 | 0.03 | 0.20 | 0.20 | 87 | 1015.5 |
| 20260508121534 | 16 | 0 | 0.0 | 12.9 | 0.03 | 0.20 | 0.20 | 87 | 1015.1 |
| 20260508121012 | 16 | 174 | 4.8 | 12.9 | 0.00 | 0.18 | 0.18 | 87 | 1014.9 |
| 20260508120514 | 16 | 180 | 4.8 | 11.3 | 0.00 | 0.18 | 0.18 | 88 | 1014.9 |
| 20260508120028 | 16 | 195 | 4.8 | 11.3 | 0.00 | 0.18 | 0.18 | 89 | 1014.9 |
| 20260508115513 | 16 | 174 | 3.2 | 9.7 | 0.00 | 0.18 | 0.18 | 89 | 1015.0 |
| 20260508115013 | 16 | 145 | 1.6 | 8.0 | 0.03 | 0.18 | 0.18 | 90 | 1014.9 |
| 20260508114532 | 16 | 153 | 0.0 | 8.0 | 0.03 | 0.18 | 0.18 | 89 | 1015.2 |
| 20260508114013 | 16 | 168 | 1.6 | 8.0 | 0.03 | 0.18 | 0.18 | 90 | 1015.1 |
| 20260508113511 | 16 | 188 | 1.6 | 6.4 | 0.03 | 0.18 | 0.18 | 90 | 1015.0 |
| 20260508113046 | 16 | 0 | 0.0 | 1.6 | 0.03 | 0.18 | 0.18 | 89 | 1014.9 |
| 20260508112514 | 16 | 0 | 0.0 | 3.2 | 0.03 | 0.18 | 0.18 | 89 | 1014.9 |
| 20260508112012 | 16 | 0 | 0.0 | 3.2 | 0.03 | 0.18 | 0.18 | 89 | 1015.0 |
| 20260508111533 | 16 | 0 | 0.0 | 1.6 | 0.03 | 0.18 | 0.18 | 89 | 1014.9 |
| 20260508111020 | 16 | 0 | 0.0 | 6.4 | 0.03 | 0.18 | 0.18 | 89 | 1014.7 |
| 20260508110514 | 16 | 0 | 0.0 | 6.4 | 0.03 | 0.18 | 0.18 | 89 | 1014.2 |
| 20260508110030 | 16 | 126 | 3.2 | 6.4 | 0.03 | 0.18 | 0.18 | 89 | 1014.6 |
| 20260508105515 | 16 | 81 | 0.0 | 4.8 | 0.03 | 0.18 | 0.18 | 89 | 1014.5 |
| 20260508105013 | 16 | 84 | 0.0 | 6.4 | 0.00 | 0.15 | 0.15 | 89 | 1015.2 |
| 20260508104528 | 16 | 319 | 3.2 | 6.4 | 0.00 | 0.15 | 0.15 | 89 | 1015.6 |
| 20260508104014 | 16 | 0 | 0.0 | 0.0 | 0.00 | 0.15 | 0.15 | 89 | 1015.5 |
| 20260508103514 | 16 | 0 | 0.0 | 0.0 | 0.00 | 0.15 | 0.15 | 89 | 1015.1 |
| 20260508103034 | 16 | 0 | 0.0 | 6.4 | 0.00 | 0.15 | 0.15 | 88 | 1014.8 |
| 20260508102511 | 16 | 0 | 0.0 | 6.4 | 0.00 | 0.15 | 0.15 | 89 | 1014.8 |
| 20260508102015 | 16 | 334 | 3.2 | 6.4 | 0.00 | 0.15 | 0.15 | 89 | 1014.7 |
| 20260508101533 | 16 | 0 | 0.0 | 4.8 | 0.00 | 0.15 | 0.15 | 88 | 1014.1 |
| 20260508101016 | 16 | 103 | 1.6 | 4.8 | 0.00 | 0.15 | 0.15 | 88 | 1013.8 |
| 20260508100516 | 16 | 0 | 0.0 | 6.4 | 0.00 | 0.15 | 0.15 | 88 | 1014.6 |
| 20260508100030 | 15 | 0 | 0.0 | 6.4 | 0.00 | 0.15 | 0.15 | 88 | 1014.4 |
| 20260508095512 | 15 | 140 | 0.0 | 4.8 | 0.00 | 0.15 | 0.15 | 88 | 1013.9 |
| 20260508095012 | 15 | 159 | 0.0 | 8.0 | 0.03 | 0.15 | 0.15 | 88 | 1014.0 |
| 20260508094528 | 15 | 164 | 1.6 | 8.0 | 0.03 | 0.15 | 0.15 | 88 | 1014.1 |
| 20260508094011 | 15 | 173 | 3.2 | 6.4 | 0.08 | 0.15 | 0.15 | 88 | 1014.1 |
| 20260508093511 | 15 | 0 | 0.0 | 3.2 | 0.08 | 0.15 | 0.15 | 88 | 1014.1 |
| 20260508093030 | 15 | 0 | 0.0 | 0.0 | 0.08 | 0.15 | 0.15 | 88 | 1014.0 |
| 20260508092510 | 15 | 0 | 0.0 | 0.0 | 0.08 | 0.15 | 0.15 | 88 | 1014.2 |
| 20260508092011 | 15 | 0 | 0.0 | 1.6 | 0.08 | 0.15 | 0.15 | 88 | 1014.1 |
| 20260508091536 | 15 | 0 | 0.0 | 1.6 | 0.10 | 0.15 | 0.15 | 87 | 1014.2 |
| 20260508091011 | 15 | 0 | 0.0 | 1.6 | 0.10 | 0.15 | 0.15 | 87 | 1014.1 |